LOT2162 LEMD-EPKK
Flight info
| Callsign | LOT2162 |
|---|---|
| Flight time | N/A |
| Altitude | 36000 |
| Route | PINAR N870 BCN M985 LUMAS DCT UNANA DCT STP DCT RAPED DCT PIGOS DCT EKSID DCT NOSTA DCT NOPMU DCT IDREK DCT LEDKO DCT MALUG DCT INGID DCT STO DCT LEDVA DCT NETIR |
| Aircraft | B738/M-SDE2E3FGHIJ1RWXY/LB1 |
Departure
| Time | N/A |
|---|---|
| Airport | Adolfo Suárez Madrid–Barajas Airport (LEMD) |
Arrival
| Time | 2026-05-03 21:51 |
|---|---|
| Airport | Kraków John Paul II International Airport (EPKK) |
| Time | Latitude | Longitude | Altitude | Speed | Heading |
|---|---|---|---|---|---|
| 2026-05-03 20:16 | 43.44610 | 7.03241 | 36134 ft | 487 kts | 53° |
| 2026-05-03 20:16 | 43.48589 | 7.10867 | 36131 ft | 487 kts | 53° |
| 2026-05-03 20:17 | 43.52538 | 7.18454 | 36130 ft | 488 kts | 53° |
| 2026-05-03 20:17 | 43.56461 | 7.26009 | 36131 ft | 488 kts | 53° |
| 2026-05-03 20:18 | 43.60404 | 7.33620 | 36141 ft | 488 kts | 53° |
| 2026-05-03 20:18 | 43.64340 | 7.41235 | 36131 ft | 488 kts | 53° |
| 2026-05-03 20:19 | 43.68290 | 7.48886 | 36138 ft | 488 kts | 53° |
| 2026-05-03 20:19 | 43.72224 | 7.56527 | 36138 ft | 488 kts | 54° |
| 2026-05-03 20:20 | 43.76150 | 7.64174 | 36134 ft | 488 kts | 53° |
| 2026-05-03 20:20 | 43.80059 | 7.71858 | 36140 ft | 487 kts | 53° |
| 2026-05-03 20:21 | 43.84630 | 7.78686 | 36144 ft | 482 kts | 35° |
| 2026-05-03 20:21 | 43.89989 | 7.84223 | 36149 ft | 480 kts | 34° |
| 2026-05-03 20:22 | 43.95247 | 7.89974 | 36114 ft | 483 kts | 41° |
| 2026-05-03 20:22 | 43.99708 | 7.96958 | 36122 ft | 485 kts | 49° |
| 2026-05-03 20:23 | 44.03998 | 8.04185 | 36128 ft | 485 kts | 49° |
| 2026-05-03 20:23 | 44.08305 | 8.11395 | 36144 ft | 485 kts | 48° |
| 2026-05-03 20:24 | 44.12636 | 8.18582 | 36144 ft | 485 kts | 48° |
| 2026-05-03 20:24 | 44.16980 | 8.25778 | 36137 ft | 485 kts | 48° |
| 2026-05-03 20:25 | 44.21312 | 8.32968 | 36141 ft | 485 kts | 48° |
| 2026-05-03 20:25 | 44.25639 | 8.40173 | 36149 ft | 484 kts | 48° |
| 2026-05-03 20:26 | 44.29962 | 8.47391 | 36137 ft | 484 kts | 48° |
| 2026-05-03 20:26 | 44.33544 | 8.53386 | 36133 ft | 484 kts | 48° |
| 2026-05-03 20:27 | 44.37849 | 8.60608 | 36127 ft | 483 kts | 48° |
| 2026-05-03 20:27 | 44.42147 | 8.67837 | 36138 ft | 483 kts | 48° |
| 2026-05-03 20:28 | 44.46438 | 8.75071 | 36116 ft | 483 kts | 48° |
| 2026-05-03 20:28 | 44.50717 | 8.82303 | 36131 ft | 482 kts | 48° |
| 2026-05-03 20:29 | 44.54991 | 8.89546 | 36140 ft | 481 kts | 48° |
| 2026-05-03 20:29 | 44.59247 | 8.96777 | 36139 ft | 480 kts | 48° |
| 2026-05-03 20:30 | 44.63495 | 9.04013 | 36135 ft | 480 kts | 48° |
| 2026-05-03 20:30 | 44.67736 | 9.11255 | 36104 ft | 480 kts | 48° |
| 2026-05-03 20:31 | 44.71975 | 9.18510 | 36104 ft | 480 kts | 48° |
| 2026-05-03 20:31 | 44.76199 | 9.25759 | 36104 ft | 479 kts | 48° |
| 2026-05-03 20:32 | 44.80413 | 9.33011 | 36114 ft | 479 kts | 48° |
| 2026-05-03 20:32 | 44.84626 | 9.40277 | 36100 ft | 479 kts | 48° |
| 2026-05-03 20:33 | 44.88835 | 9.47556 | 36108 ft | 479 kts | 48° |
| 2026-05-03 20:33 | 44.93035 | 9.54839 | 36102 ft | 479 kts | 48° |
| 2026-05-03 20:34 | 44.97242 | 9.62153 | 36095 ft | 480 kts | 48° |
| 2026-05-03 20:34 | 45.01446 | 9.69479 | 36071 ft | 481 kts | 48° |
| 2026-05-03 20:35 | 45.05654 | 9.76831 | 36080 ft | 481 kts | 48° |
| 2026-05-03 20:35 | 45.09863 | 9.84205 | 36065 ft | 482 kts | 48° |
| 2026-05-03 20:36 | 45.14070 | 9.91595 | 36069 ft | 482 kts | 48° |
| 2026-05-03 20:36 | 45.18251 | 9.98957 | 36061 ft | 483 kts | 48° |
| 2026-05-03 20:37 | 45.22454 | 10.06379 | 36044 ft | 483 kts | 48° |
| 2026-05-03 20:37 | 45.26647 | 10.13802 | 36041 ft | 481 kts | 48° |
| 2026-05-03 20:38 | 45.30825 | 10.21219 | 36055 ft | 480 kts | 48° |
| 2026-05-03 20:38 | 45.34983 | 10.28619 | 36055 ft | 479 kts | 48° |
| 2026-05-03 20:39 | 45.39131 | 10.36019 | 36080 ft | 478 kts | 49° |
| 2026-05-03 20:39 | 45.43263 | 10.43411 | 36069 ft | 477 kts | 49° |
| 2026-05-03 20:40 | 45.47377 | 10.50790 | 36082 ft | 476 kts | 49° |
| 2026-05-03 20:40 | 45.51490 | 10.58188 | 36080 ft | 475 kts | 49° |
| 2026-05-03 20:41 | 45.55589 | 10.65579 | 36080 ft | 475 kts | 49° |
| 2026-05-03 20:41 | 45.59684 | 10.72982 | 36095 ft | 474 kts | 49° |
| 2026-05-03 20:42 | 45.63765 | 10.80378 | 36092 ft | 474 kts | 49° |
| 2026-05-03 20:42 | 45.68065 | 10.87512 | 36106 ft | 473 kts | 44° |
| 2026-05-03 20:43 | 45.72566 | 10.94364 | 36142 ft | 472 kts | 44° |
| 2026-05-03 20:43 | 45.77034 | 11.01264 | 36142 ft | 473 kts | 44° |
| 2026-05-03 20:44 | 45.81476 | 11.08227 | 36144 ft | 474 kts | 45° |
| 2026-05-03 20:44 | 45.85849 | 11.15312 | 36153 ft | 475 kts | 46° |
| 2026-05-03 20:45 | 45.90140 | 11.22501 | 36158 ft | 474 kts | 46° |
| 2026-05-03 20:45 | 45.94420 | 11.29683 | 36166 ft | 473 kts | 46° |
| 2026-05-03 20:46 | 45.98695 | 11.36840 | 36172 ft | 472 kts | 46° |
| 2026-05-03 20:46 | 46.02968 | 11.43996 | 36164 ft | 470 kts | 46° |
| 2026-05-03 20:47 | 46.07219 | 11.51130 | 36140 ft | 469 kts | 46° |
| 2026-05-03 20:47 | 46.11457 | 11.58264 | 36134 ft | 468 kts | 47° |
| 2026-05-03 20:48 | 46.15673 | 11.65377 | 36127 ft | 466 kts | 47° |
| 2026-05-03 20:48 | 46.19866 | 11.72474 | 36126 ft | 464 kts | 47° |
| 2026-05-03 20:49 | 46.24061 | 11.79588 | 36118 ft | 465 kts | 47° |
| 2026-05-03 20:49 | 46.28253 | 11.86717 | 36109 ft | 466 kts | 47° |
| 2026-05-03 20:50 | 46.32456 | 11.93881 | 36107 ft | 467 kts | 47° |
| 2026-05-03 20:50 | 46.36656 | 12.01063 | 36123 ft | 468 kts | 47° |
| 2026-05-03 20:51 | 46.40835 | 12.08228 | 36107 ft | 469 kts | 47° |
| 2026-05-03 20:51 | 46.45045 | 12.15462 | 36092 ft | 469 kts | 47° |
| 2026-05-03 20:52 | 46.49244 | 12.22698 | 36138 ft | 468 kts | 47° |
| 2026-05-03 20:52 | 46.53430 | 12.29929 | 36163 ft | 468 kts | 48° |
| 2026-05-03 20:52 | 46.55531 | 12.33567 | 36299 ft | 469 kts | 48° |
| 2026-05-03 20:53 | 46.57620 | 12.37188 | 36572 ft | 467 kts | 48° |
| 2026-05-03 20:53 | 46.59697 | 12.40795 | 36849 ft | 464 kts | 48° |
| 2026-05-03 20:53 | 46.61764 | 12.44387 | 37101 ft | 462 kts | 48° |
| 2026-05-03 20:54 | 46.65910 | 12.51607 | 37136 ft | 466 kts | 48° |
| 2026-05-03 20:54 | 46.72097 | 12.62479 | 37116 ft | 463 kts | 50° |
| 2026-05-03 20:55 | 46.76018 | 12.69909 | 37097 ft | 462 kts | 51° |
| 2026-05-03 20:55 | 46.79880 | 12.77364 | 37086 ft | 460 kts | 51° |
| 2026-05-03 20:56 | 46.83741 | 12.84782 | 37078 ft | 459 kts | 51° |
| 2026-05-03 20:56 | 46.87608 | 12.92188 | 37092 ft | 458 kts | 51° |
| 2026-05-03 20:57 | 46.91469 | 12.99590 | 37082 ft | 457 kts | 51° |
| 2026-05-03 20:57 | 46.95325 | 13.07004 | 37086 ft | 457 kts | 51° |
| 2026-05-03 20:58 | 46.99176 | 13.14428 | 37077 ft | 459 kts | 51° |
| 2026-05-03 20:58 | 47.03039 | 13.21898 | 37076 ft | 461 kts | 51° |
| 2026-05-03 20:59 | 47.06914 | 13.29412 | 37077 ft | 463 kts | 51° |
| 2026-05-03 20:59 | 47.10798 | 13.36963 | 37065 ft | 464 kts | 51° |
| 2026-05-03 21:00 | 47.13371 | 13.41979 | 37051 ft | 465 kts | 51° |
| 2026-05-03 21:00 | 47.18567 | 13.52134 | 37051 ft | 464 kts | 51° |
| 2026-05-03 21:01 | 47.22433 | 13.59713 | 37062 ft | 464 kts | 52° |
| 2026-05-03 21:01 | 47.26305 | 13.67322 | 37032 ft | 463 kts | 52° |
| 2026-05-03 21:02 | 47.30140 | 13.74841 | 37053 ft | 462 kts | 51° |
| 2026-05-03 21:02 | 47.34004 | 13.82386 | 37041 ft | 461 kts | 51° |
| 2026-05-03 21:03 | 47.37848 | 13.89913 | 37045 ft | 458 kts | 51° |
| 2026-05-03 21:03 | 47.41673 | 13.97432 | 37039 ft | 457 kts | 51° |
| 2026-05-03 21:04 | 47.45472 | 14.04925 | 37029 ft | 455 kts | 51° |
| 2026-05-03 21:04 | 47.49250 | 14.12397 | 37025 ft | 454 kts | 52° |
| 2026-05-03 21:05 | 47.53023 | 14.19878 | 37023 ft | 452 kts | 52° |
| 2026-05-03 21:05 | 47.56775 | 14.27337 | 37025 ft | 451 kts | 51° |
| 2026-05-03 21:06 | 47.60516 | 14.34798 | 37004 ft | 451 kts | 52° |
| 2026-05-03 21:06 | 47.64253 | 14.42268 | 37032 ft | 450 kts | 51° |
| 2026-05-03 21:07 | 47.67976 | 14.49731 | 37022 ft | 451 kts | 51° |
| 2026-05-03 21:07 | 47.71703 | 14.57222 | 37004 ft | 452 kts | 51° |
| 2026-05-03 21:08 | 47.75438 | 14.64750 | 37015 ft | 453 kts | 52° |
| 2026-05-03 21:08 | 47.79172 | 14.72299 | 36997 ft | 454 kts | 52° |
| 2026-05-03 21:09 | 47.82904 | 14.79862 | 37007 ft | 453 kts | 52° |
| 2026-05-03 21:09 | 47.86635 | 14.87446 | 37002 ft | 455 kts | 52° |
| 2026-05-03 21:10 | 47.90364 | 14.95046 | 37004 ft | 455 kts | 52° |
| 2026-05-03 21:10 | 47.93465 | 15.01383 | 37009 ft | 455 kts | 51° |
| 2026-05-03 21:11 | 47.97189 | 15.09013 | 36997 ft | 455 kts | 51° |
| 2026-05-03 21:11 | 48.01502 | 15.17875 | 37016 ft | 453 kts | 51° |
| 2026-05-03 21:12 | 48.04596 | 15.24250 | 37015 ft | 453 kts | 51° |
| 2026-05-03 21:12 | 48.08283 | 15.31867 | 37018 ft | 452 kts | 52° |
| 2026-05-03 21:13 | 48.11960 | 15.39485 | 37021 ft | 451 kts | 52° |
| 2026-05-03 21:13 | 48.15618 | 15.47085 | 37018 ft | 450 kts | 52° |
| 2026-05-03 21:14 | 48.19267 | 15.54686 | 37022 ft | 449 kts | 52° |
| 2026-05-03 21:14 | 48.22907 | 15.62291 | 37026 ft | 448 kts | 52° |
| 2026-05-03 21:15 | 48.26531 | 15.69883 | 37021 ft | 448 kts | 52° |
| 2026-05-03 21:15 | 48.30154 | 15.77494 | 37024 ft | 448 kts | 52° |
| 2026-05-03 21:16 | 48.33749 | 15.85068 | 37024 ft | 448 kts | 52° |
| 2026-05-03 21:16 | 48.37382 | 15.92746 | 37028 ft | 448 kts | 53° |
| 2026-05-03 21:17 | 48.40993 | 16.00394 | 37038 ft | 448 kts | 53° |
| 2026-05-03 21:17 | 48.44403 | 16.08195 | 37038 ft | 449 kts | 56° |
| 2026-05-03 21:18 | 48.47644 | 16.16248 | 37043 ft | 450 kts | 57° |
| 2026-05-03 21:18 | 48.50888 | 16.24316 | 37046 ft | 450 kts | 56° |
| 2026-05-03 21:19 | 48.54157 | 16.32379 | 37056 ft | 450 kts | 56° |
| 2026-05-03 21:19 | 48.57428 | 16.40437 | 37057 ft | 450 kts | 56° |
| 2026-05-03 21:20 | 48.60697 | 16.48514 | 37053 ft | 450 kts | 56° |
| 2026-05-03 21:20 | 48.63955 | 16.56590 | 37062 ft | 450 kts | 57° |
| 2026-05-03 21:21 | 48.67204 | 16.64672 | 37068 ft | 450 kts | 57° |
| 2026-05-03 21:21 | 48.70447 | 16.72760 | 37062 ft | 449 kts | 57° |
| 2026-05-03 21:22 | 48.73751 | 16.80769 | 37077 ft | 448 kts | 52° |
| 2026-05-03 21:22 | 48.77564 | 16.88203 | 37071 ft | 446 kts | 49° |
| 2026-05-03 21:23 | 48.81466 | 16.95511 | 37065 ft | 445 kts | 49° |
| 2026-05-03 21:23 | 48.85322 | 17.02842 | 37070 ft | 444 kts | 50° |
| 2026-05-03 21:24 | 48.89133 | 17.10197 | 37087 ft | 443 kts | 50° |
| 2026-05-03 21:24 | 48.92929 | 17.17575 | 37083 ft | 442 kts | 50° |
| 2026-05-03 21:25 | 48.96711 | 17.24948 | 36978 ft | 444 kts | 50° |
| 2026-05-03 21:25 | 48.98625 | 17.28684 | 36689 ft | 448 kts | 50° |
| 2026-05-03 21:25 | 49.00530 | 17.32410 | 36444 ft | 445 kts | 50° |
| 2026-05-03 21:26 | 49.02400 | 17.36073 | 36181 ft | 443 kts | 50° |
| 2026-05-03 21:26 | 49.04311 | 17.39820 | 35928 ft | 442 kts | 50° |
| 2026-05-03 21:26 | 49.06195 | 17.43520 | 35678 ft | 441 kts | 50° |
| 2026-05-03 21:26 | 49.08076 | 17.47217 | 35319 ft | 440 kts | 50° |
| 2026-05-03 21:27 | 49.09928 | 17.50863 | 34718 ft | 441 kts | 50° |
| 2026-05-03 21:27 | 49.11829 | 17.54610 | 34102 ft | 441 kts | 50° |
| 2026-05-03 21:27 | 49.13708 | 17.58321 | 33399 ft | 442 kts | 50° |
| 2026-05-03 21:27 | 49.15561 | 17.61982 | 32858 ft | 439 kts | 51° |
| 2026-05-03 21:28 | 49.17442 | 17.65709 | 32389 ft | 435 kts | 51° |
| 2026-05-03 21:28 | 49.19279 | 17.69351 | 31909 ft | 431 kts | 51° |
| 2026-05-03 21:28 | 49.21079 | 17.72925 | 31474 ft | 428 kts | 51° |
| 2026-05-03 21:28 | 49.22909 | 17.76562 | 31021 ft | 424 kts | 51° |
| 2026-05-03 21:29 | 49.24676 | 17.80080 | 30593 ft | 421 kts | 51° |
| 2026-05-03 21:29 | 49.26455 | 17.83626 | 30158 ft | 418 kts | 51° |
| 2026-05-03 21:29 | 49.28222 | 17.87152 | 29651 ft | 415 kts | 51° |
| 2026-05-03 21:29 | 49.29968 | 17.90642 | 29183 ft | 411 kts | 51° |
| 2026-05-03 21:30 | 49.31722 | 17.94151 | 28743 ft | 421 kts | 51° |
| 2026-05-03 21:30 | 49.33543 | 17.97796 | 28275 ft | 441 kts | 51° |
| 2026-05-03 21:30 | 49.35426 | 18.01570 | 27763 ft | 446 kts | 51° |
| 2026-05-03 21:30 | 49.37300 | 18.05337 | 27261 ft | 444 kts | 51° |
| 2026-05-03 21:31 | 49.39167 | 18.09095 | 26760 ft | 441 kts | 51° |
| 2026-05-03 21:31 | 49.41016 | 18.12823 | 26283 ft | 438 kts | 51° |
| 2026-05-03 21:31 | 49.42855 | 18.16536 | 25812 ft | 435 kts | 51° |
| 2026-05-03 21:31 | 49.44681 | 18.20227 | 25336 ft | 433 kts | 51° |
| 2026-05-03 21:32 | 49.46497 | 18.23901 | 24866 ft | 431 kts | 51° |
| 2026-05-03 21:32 | 49.48307 | 18.27569 | 24400 ft | 429 kts | 52° |
| 2026-05-03 21:32 | 49.50109 | 18.31226 | 23922 ft | 428 kts | 51° |
| 2026-05-03 21:32 | 49.51907 | 18.34878 | 23392 ft | 428 kts | 52° |
| 2026-05-03 21:33 | 49.53692 | 18.38510 | 22870 ft | 425 kts | 52° |
| 2026-05-03 21:33 | 49.55468 | 18.42131 | 22389 ft | 422 kts | 52° |
| 2026-05-03 21:33 | 49.57242 | 18.45749 | 21933 ft | 427 kts | 52° |
| 2026-05-03 21:33 | 49.59044 | 18.49430 | 21448 ft | 431 kts | 52° |
| 2026-05-03 21:34 | 49.60840 | 18.53104 | 20977 ft | 427 kts | 52° |
| 2026-05-03 21:34 | 49.62618 | 18.56748 | 20509 ft | 423 kts | 52° |
| 2026-05-03 21:34 | 49.64376 | 18.60357 | 20040 ft | 420 kts | 52° |
| 2026-05-03 21:34 | 49.66130 | 18.63957 | 19586 ft | 417 kts | 52° |
| 2026-05-03 21:35 | 49.67867 | 18.67529 | 19140 ft | 415 kts | 53° |
| 2026-05-03 21:35 | 49.69575 | 18.71108 | 18691 ft | 413 kts | 56° |
| 2026-05-03 21:35 | 49.71037 | 18.74916 | 18342 ft | 409 kts | 62° |
| 2026-05-03 21:35 | 49.72361 | 18.78796 | 17854 ft | 408 kts | 63° |
| 2026-05-03 21:36 | 49.73654 | 18.82685 | 17398 ft | 406 kts | 63° |
| 2026-05-03 21:36 | 49.74926 | 18.86509 | 16972 ft | 403 kts | 63° |
| 2026-05-03 21:36 | 49.76233 | 18.90399 | 16512 ft | 401 kts | 62° |
| 2026-05-03 21:36 | 49.77525 | 18.94210 | 16071 ft | 399 kts | 62° |
| 2026-05-03 21:37 | 49.78797 | 18.97945 | 15638 ft | 397 kts | 62° |
| 2026-05-03 21:37 | 49.80083 | 19.01714 | 15203 ft | 395 kts | 62° |
| 2026-05-03 21:37 | 49.81362 | 19.05461 | 14769 ft | 393 kts | 62° |
| 2026-05-03 21:37 | 49.82637 | 19.09204 | 14339 ft | 392 kts | 62° |
| 2026-05-03 21:38 | 49.83907 | 19.12936 | 13899 ft | 391 kts | 63° |
| 2026-05-03 21:38 | 49.85171 | 19.16657 | 13418 ft | 390 kts | 63° |
| 2026-05-03 21:38 | 49.86429 | 19.20364 | 12953 ft | 387 kts | 63° |
| 2026-05-03 21:38 | 49.87668 | 19.24022 | 12520 ft | 381 kts | 63° |
| 2026-05-03 21:39 | 49.88889 | 19.27634 | 12097 ft | 375 kts | 63° |
| 2026-05-03 21:39 | 49.89992 | 19.31254 | 11787 ft | 366 kts | 68° |
| 2026-05-03 21:39 | 49.90983 | 19.34841 | 11351 ft | 355 kts | 69° |
| 2026-05-03 21:39 | 49.91924 | 19.38307 | 10947 ft | 343 kts | 69° |
| 2026-05-03 21:40 | 49.92843 | 19.41649 | 10647 ft | 329 kts | 69° |
| 2026-05-03 21:40 | 49.93723 | 19.44817 | 10506 ft | 312 kts | 68° |
| 2026-05-03 21:40 | 49.94562 | 19.47827 | 10364 ft | 296 kts | 69° |
| 2026-05-03 21:40 | 49.95202 | 19.50784 | 10235 ft | 283 kts | 79° |
| 2026-05-03 21:41 | 49.95581 | 19.53767 | 10140 ft | 282 kts | 82° |
| 2026-05-03 21:41 | 49.95947 | 19.56771 | 10015 ft | 284 kts | 81° |
| 2026-05-03 21:41 | 49.96335 | 19.59822 | 9706 ft | 292 kts | 81° |
| 2026-05-03 21:41 | 49.96741 | 19.62919 | 9400 ft | 292 kts | 80° |
| 2026-05-03 21:42 | 49.97155 | 19.66004 | 9082 ft | 291 kts | 80° |
| 2026-05-03 21:42 | 49.97569 | 19.69069 | 8768 ft | 289 kts | 80° |
| 2026-05-03 21:42 | 49.97981 | 19.72119 | 8472 ft | 288 kts | 80° |
| 2026-05-03 21:42 | 49.98390 | 19.75147 | 8185 ft | 286 kts | 80° |
| 2026-05-03 21:43 | 49.98800 | 19.78170 | 7895 ft | 285 kts | 80° |
| 2026-05-03 21:43 | 49.99207 | 19.81171 | 7600 ft | 284 kts | 80° |
| 2026-05-03 21:43 | 49.99611 | 19.84160 | 7315 ft | 282 kts | 80° |
| 2026-05-03 21:43 | 50.00014 | 19.87146 | 7030 ft | 281 kts | 80° |
| 2026-05-03 21:44 | 50.00417 | 19.90115 | 6802 ft | 278 kts | 80° |
| 2026-05-03 21:44 | 50.00810 | 19.93016 | 6671 ft | 271 kts | 80° |
| 2026-05-03 21:44 | 50.01194 | 19.95862 | 6547 ft | 267 kts | 80° |
| 2026-05-03 21:44 | 50.01575 | 19.98686 | 6430 ft | 267 kts | 80° |
| 2026-05-03 21:45 | 50.01960 | 20.01541 | 6141 ft | 273 kts | 80° |
| 2026-05-03 21:45 | 50.02351 | 20.04429 | 5858 ft | 273 kts | 79° |
| 2026-05-03 21:45 | 50.02813 | 20.07285 | 5550 ft | 271 kts | 68° |
| 2026-05-03 21:45 | 50.03944 | 20.09545 | 5268 ft | 264 kts | 36° |
| 2026-05-03 21:46 | 50.05581 | 20.10667 | 5015 ft | 255 kts | 10° |
| 2026-05-03 21:46 | 50.07308 | 20.10724 | 4773 ft | 245 kts | 351° |
| 2026-05-03 21:46 | 50.08953 | 20.10240 | 4520 ft | 238 kts | 347° |
| 2026-05-03 21:46 | 50.10488 | 20.09415 | 4309 ft | 229 kts | 322° |
| 2026-05-03 21:47 | 50.11348 | 20.07518 | 4201 ft | 211 kts | 281° |
| 2026-05-03 21:47 | 50.11325 | 20.05287 | 3999 ft | 206 kts | 261° |
| 2026-05-03 21:47 | 50.11165 | 20.03094 | 3725 ft | 201 kts | 259° |
| 2026-05-03 21:47 | 50.10920 | 20.00981 | 3461 ft | 196 kts | 256° |
| 2026-05-03 21:48 | 50.10636 | 19.98932 | 3205 ft | 190 kts | 255° |
| 2026-05-03 21:48 | 50.10357 | 19.96955 | 2951 ft | 184 kts | 255° |
| 2026-05-03 21:48 | 50.10085 | 19.95028 | 2730 ft | 180 kts | 255° |
| 2026-05-03 21:48 | 50.09824 | 19.93174 | 2480 ft | 176 kts | 255° |
| 2026-05-03 21:49 | 50.09566 | 19.91329 | 2253 ft | 167 kts | 256° |
| 2026-05-03 21:49 | 50.09329 | 19.89638 | 2044 ft | 156 kts | 256° |
| 2026-05-03 21:49 | 50.09099 | 19.88001 | 1875 ft | 153 kts | 257° |
| 2026-05-03 21:49 | 50.08867 | 19.86337 | 1632 ft | 159 kts | 256° |
| 2026-05-03 21:50 | 50.08633 | 19.84661 | 1409 ft | 157 kts | 257° |
| 2026-05-03 21:50 | 50.08403 | 19.83013 | 1200 ft | 154 kts | 257° |
| 2026-05-03 21:50 | 50.08180 | 19.81398 | 999 ft | 150 kts | 257° |
| 2026-05-03 21:50 | 50.07961 | 19.79828 | 819 ft | 147 kts | 257° |
| 2026-05-03 21:51 | 50.07760 | 19.78393 | 801 ft | 116 kts | 257° |
| 2026-05-03 21:51 | 50.07621 | 19.77393 | 799 ft | 73 kts | 257° |
| 2026-05-03 21:51 | 50.07553 | 19.76911 | 801 ft | 21 kts | 250° |
| 2026-05-03 21:51 | 50.07428 | 19.76861 | 799 ft | 20 kts | 169° |
| 2026-05-03 21:52 | 50.07313 | 19.76954 | 799 ft | 20 kts | 99° |
| 2026-05-03 21:52 | 50.07335 | 19.77161 | 799 ft | 19 kts | 78° |
| 2026-05-03 21:52 | 50.07363 | 19.77360 | 799 ft | 19 kts | 77° |
| 2026-05-03 21:52 | 50.07390 | 19.77554 | 799 ft | 18 kts | 78° |
| 2026-05-03 21:53 | 50.07415 | 19.77740 | 799 ft | 17 kts | 78° |
| 2026-05-03 21:53 | 50.07440 | 19.77920 | 799 ft | 17 kts | 77° |
| 2026-05-03 21:53 | 50.07465 | 19.78092 | 799 ft | 16 kts | 77° |
| 2026-05-03 21:53 | 50.07489 | 19.78259 | 799 ft | 15 kts | 78° |
| 2026-05-03 21:54 | 50.07512 | 19.78430 | 799 ft | 16 kts | 78° |
| 2026-05-03 21:54 | 50.07535 | 19.78598 | 799 ft | 16 kts | 77° |
| 2026-05-03 21:54 | 50.07559 | 19.78766 | 799 ft | 16 kts | 78° |
| 2026-05-03 21:54 | 50.07584 | 19.78954 | 799 ft | 19 kts | 78° |
| 2026-05-03 21:55 | 50.07611 | 19.79148 | 799 ft | 18 kts | 77° |
| 2026-05-03 21:55 | 50.07637 | 19.79335 | 799 ft | 17 kts | 78° |
| 2026-05-03 21:55 | 50.07663 | 19.79520 | 799 ft | 18 kts | 77° |
| 2026-05-03 21:55 | 50.07691 | 19.79714 | 799 ft | 18 kts | 77° |
| 2026-05-03 21:56 | 50.07669 | 19.79881 | 799 ft | 18 kts | 159° |
| 2026-05-03 21:56 | 50.07551 | 19.79919 | 799 ft | 17 kts | 168° |
| 2026-05-03 21:56 | 50.07440 | 19.79956 | 799 ft | 15 kts | 167° |
| 2026-05-03 21:56 | 50.07402 | 19.80058 | 799 ft | 11 kts | 90° |
| 2026-05-03 21:57 | 50.07346 | 19.80113 | 799 ft | 10 kts | 167° |
| 2026-05-03 21:57 | 50.07343 | 19.80114 | 799 ft | 0 kts | 167° |